createdAt,value
2019-03-03T00:01:22.611Z,46.77
2019-03-03T00:04:12.173Z,45.63
2019-03-03T00:07:01.688Z,44.15
2019-03-03T00:09:51.728Z,41.85
2019-03-03T00:12:41.402Z,49.55
2019-03-03T00:15:30.893Z,38.65
2019-03-03T00:18:20.895Z,48.05
2019-03-03T00:21:30.545Z,40.70
2019-03-03T00:24:20.401Z,39.25
2019-03-03T00:27:10.185Z,41.53
2019-03-03T00:30:00.006Z,50.88
2019-03-03T00:32:49.855Z,48.75
2019-03-03T00:35:39.749Z,51.15
2019-03-03T00:39:00.327Z,41.30
2019-03-03T00:42:12.323Z,45.55
2019-03-03T00:45:29.750Z,44.42
2019-03-03T00:48:28.542Z,41.48
2019-03-03T00:51:43.002Z,48.50
2019-03-03T00:54:55.002Z,45.40
2019-03-03T00:57:57.072Z,42.60
2019-03-03T01:00:51.287Z,39.18
2019-03-03T01:03:56.082Z,39.20
2019-03-03T01:07:04.776Z,39.42
2019-03-03T01:10:25.409Z,39.53
2019-03-03T01:13:36.760Z,44.05
2019-03-03T01:16:57.702Z,39.73
2019-03-03T01:20:18.307Z,41.92
2019-03-03T01:23:21.908Z,36.15
2019-03-03T01:26:11.585Z,38.40
2019-03-03T01:29:01.025Z,38.53
2019-03-03T01:31:50.985Z,38.20
2019-03-03T01:34:40.746Z,37.05
2019-03-03T01:37:30.406Z,40.12
2019-03-03T01:40:20.305Z,37.93
2019-03-03T01:43:10.167Z,35.25
2019-03-03T01:46:00.285Z,39.63
2019-03-03T01:48:50.421Z,33.80
2019-03-03T01:51:41.493Z,27.80
2019-03-03T01:54:31.531Z,30.30
2019-03-03T01:57:21.395Z,30.15
2019-03-03T02:00:25.768Z,40.88
2019-03-03T02:03:15.618Z,33.92
2019-03-03T02:06:05.983Z,38.58
2019-03-03T02:08:56.031Z,32.20
2019-03-03T02:11:45.852Z,32.42
2019-03-03T02:14:36.045Z,37.20
2019-03-03T02:17:25.731Z,32.83
2019-03-03T02:20:15.852Z,32.67
2019-03-03T02:23:05.973Z,32.20
2019-03-03T02:25:55.775Z,33.92
2019-03-03T02:28:45.077Z,35.13
2019-03-03T02:31:34.963Z,29.18
2019-03-03T02:34:25.034Z,31.00
2019-03-03T02:37:15.044Z,32.20
2019-03-03T02:40:04.915Z,31.00
2019-03-03T02:42:54.726Z,28.12
2019-03-03T02:45:44.567Z,34.45
2019-03-03T02:48:34.455Z,26.33
2019-03-03T02:51:24.242Z,25.68
2019-03-03T02:54:14.111Z,28.85
2019-03-03T02:57:04.224Z,33.80
2019-03-03T02:59:54.229Z,26.20
2019-03-03T03:02:55.219Z,34.55
2019-03-03T03:06:12.854Z,30.50
2019-03-03T03:09:17.865Z,33.92
2019-03-03T03:12:17.912Z,25.65
2019-03-03T03:15:40.555Z,32.08
2019-03-03T03:19:04.747Z,31.95
2019-03-03T03:22:13.366Z,28.83
2019-03-03T03:25:08.964Z,34.55
2019-03-03T03:28:23.955Z,25.00
2019-03-03T03:31:33.053Z,25.37
2019-03-03T03:34:44.795Z,25.65
2019-03-03T03:37:52.171Z,23.35
2019-03-03T03:40:59.981Z,23.70
2019-03-03T03:43:56.635Z,24.70
2019-03-03T03:47:14.773Z,22.13
2019-03-03T03:50:29.529Z,30.75
2019-03-03T03:53:31.489Z,24.10
2019-03-03T03:56:51.912Z,28.25
2019-03-03T04:00:06.346Z,24.92
2019-03-03T04:03:18.039Z,25.55
2019-03-03T04:06:35.469Z,28.95
2019-03-03T04:09:29.526Z,24.55
2019-03-03T04:12:57.007Z,23.02
2019-03-03T04:16:05.533Z,23.10
2019-03-03T04:19:12.924Z,21.23
2019-03-03T04:22:28.106Z,30.35
2019-03-03T04:25:30.981Z,32.50
2019-03-03T04:28:27.272Z,26.15
2019-03-03T04:31:25.796Z,31.37
2019-03-03T04:34:40.671Z,24.07
2019-03-03T04:37:52.365Z,29.30
2019-03-03T04:40:57.701Z,27.00
2019-03-03T04:44:10.316Z,28.23
2019-03-03T04:47:09.481Z,26.95
2019-03-03T04:50:10.457Z,26.25
2019-03-03T04:53:25.177Z,39.55
2019-03-03T04:56:43.131Z,25.97
2019-03-03T04:59:55.060Z,38.02
2019-03-03T05:03:15.975Z,29.55
2019-03-03T05:06:32.990Z,27.65
2019-03-03T05:09:36.493Z,38.55
2019-03-03T05:12:51.457Z,23.25
2019-03-03T05:15:59.567Z,19.17
2019-03-03T05:19:17.611Z,28.60
2019-03-03T05:22:10.464Z,36.58
2019-03-03T05:25:00.643Z,29.10
2019-03-03T05:27:50.844Z,28.47
2019-03-03T05:30:40.417Z,31.55
2019-03-03T05:33:30.195Z,36.98
2019-03-03T05:36:20.211Z,31.70
2019-03-03T05:39:10.269Z,25.17
2019-03-03T05:42:00.196Z,24.85
2019-03-03T05:44:49.721Z,28.95
2019-03-03T05:47:39.651Z,26.05
2019-03-03T05:50:29.286Z,25.68
2019-03-03T05:53:19.049Z,29.77
2019-03-03T05:56:08.614Z,23.00
2019-03-03T05:58:58.446Z,22.02
2019-03-03T06:01:47.892Z,25.92
2019-03-03T06:04:37.663Z,20.25
2019-03-03T06:07:27.425Z,23.80
2019-03-03T06:10:17.133Z,18.45
2019-03-03T06:13:06.825Z,19.07
2019-03-03T06:15:56.644Z,25.97
2019-03-03T06:18:46.464Z,22.70
2019-03-03T06:21:36.148Z,17.75
2019-03-03T06:24:25.993Z,26.20
2019-03-03T06:27:16.224Z,15.45
2019-03-03T06:30:07.060Z,17.02
2019-03-03T06:32:56.912Z,17.73
2019-03-03T06:35:46.241Z,13.62
2019-03-03T06:38:35.972Z,18.23
2019-03-03T06:41:25.793Z,15.58
2019-03-03T06:44:15.392Z,13.00
2019-03-03T06:47:04.954Z,14.83
2019-03-03T06:49:55.011Z,15.50
2019-03-03T06:52:45.092Z,15.80
2019-03-03T06:55:36.052Z,17.57
2019-03-03T06:58:25.425Z,12.33
2019-03-03T07:01:15.291Z,14.38
2019-03-03T07:04:05.186Z,13.13
2019-03-03T07:06:54.895Z,12.25
2019-03-03T07:09:45.022Z,11.93
2019-03-03T07:12:34.961Z,15.80
2019-03-03T07:15:24.756Z,9.70
2019-03-03T07:18:14.347Z,12.07
2019-03-03T07:21:04.332Z,12.55
2019-03-03T07:23:57.548Z,12.30
2019-03-03T07:26:47.335Z,13.50
2019-03-03T07:29:37.099Z,10.85
2019-03-03T07:32:26.791Z,10.88
2019-03-03T07:35:16.444Z,10.15
2019-03-03T07:38:06.321Z,9.03
2019-03-03T07:40:56.144Z,9.28
2019-03-03T07:43:45.564Z,9.80
2019-03-03T07:46:35.186Z,9.28
2019-03-03T07:49:24.925Z,7.75
2019-03-03T07:52:14.631Z,8.10
2019-03-03T07:55:04.819Z,8.78
2019-03-03T07:57:54.456Z,8.60
2019-03-03T08:00:44.087Z,9.00
2019-03-03T08:03:33.776Z,8.83
2019-03-03T08:06:23.271Z,9.88
2019-03-03T08:09:13.501Z,10.25
2019-03-03T08:12:03.581Z,11.85
2019-03-03T08:14:53.128Z,9.58
2019-03-03T08:17:42.958Z,12.63
2019-03-03T08:20:32.951Z,11.05
2019-03-03T08:23:22.583Z,15.83
2019-03-03T08:26:12.235Z,22.40
2019-03-03T08:29:01.754Z,20.70
2019-03-03T08:31:51.356Z,16.73
2019-03-03T08:34:41.162Z,17.20
2019-03-03T08:37:30.716Z,18.65
2019-03-03T08:40:20.585Z,19.45
2019-03-03T08:43:29.389Z,26.37
2019-03-03T08:46:47.432Z,22.85
2019-03-03T08:50:01.963Z,16.50
2019-03-03T08:53:04.369Z,19.10
2019-03-03T08:56:12.067Z,20.02
2019-03-03T08:59:24.682Z,22.65
2019-03-03T09:02:29.923Z,21.52
2019-03-03T09:05:40.242Z,21.33
2019-03-03T09:08:46.551Z,20.00
2019-03-03T09:11:45.651Z,20.72
2019-03-03T09:14:53.349Z,23.85
2019-03-03T09:18:05.864Z,19.45
2019-03-03T09:21:14.893Z,28.67
2019-03-03T09:24:34.841Z,19.32
2019-03-03T09:27:37.770Z,32.73
2019-03-03T09:30:45.372Z,25.30
2019-03-03T09:34:09.528Z,21.68
2019-03-03T09:37:20.836Z,28.50
2019-03-03T09:40:32.426Z,21.35
2019-03-03T09:43:31.525Z,23.80
2019-03-03T09:46:46.364Z,16.07
2019-03-03T09:49:58.185Z,19.77
2019-03-03T09:53:25.549Z,29.65
2019-03-03T09:56:33.351Z,24.52
2019-03-03T09:59:42.486Z,16.20
2019-03-03T10:02:50.799Z,18.67
2019-03-03T10:05:59.417Z,22.37
2019-03-03T10:09:13.980Z,30.70
2019-03-03T10:12:21.472Z,21.42
2019-03-03T10:15:34.806Z,18.80
2019-03-03T10:18:49.202Z,23.42
2019-03-03T10:21:57.374Z,31.35
2019-03-03T10:25:15.285Z,19.15
2019-03-03T10:28:33.253Z,19.42
2019-03-03T10:31:36.822Z,22.85
2019-03-03T10:34:48.858Z,22.50
2019-03-03T10:38:04.439Z,22.15
2019-03-03T10:41:10.269Z,16.25
2019-03-03T10:44:21.481Z,23.87
2019-03-03T10:47:30.308Z,22.50
2019-03-03T10:50:54.289Z,24.70
2019-03-03T10:54:08.952Z,22.40
2019-03-03T10:57:16.116Z,17.92
2019-03-03T11:00:28.655Z,21.02
2019-03-03T11:03:40.244Z,16.20
2019-03-03T11:06:47.183Z,18.27
2019-03-03T11:10:07.826Z,22.60
2019-03-03T11:13:15.072Z,20.72
2019-03-03T11:16:22.205Z,24.80
2019-03-03T11:19:23.045Z,21.45
2019-03-03T11:22:18.860Z,23.12
2019-03-03T11:29:02.423Z,25.23
2019-03-03T11:32:17.085Z,26.50
2019-03-03T11:35:24.475Z,16.55
2019-03-03T11:38:24.397Z,18.85
2019-03-03T11:41:31.034Z,17.90
2019-03-03T11:44:38.359Z,18.55
2019-03-03T11:48:04.414Z,18.65
2019-03-03T11:51:17.620Z,21.68
2019-03-03T11:54:16.206Z,14.18
2019-03-03T11:57:21.800Z,16.37
2019-03-03T12:00:40.160Z,17.55
2019-03-03T12:03:48.832Z,16.75
2019-03-03T12:06:50.876Z,24.50
2019-03-03T12:09:52.932Z,11.60
2019-03-03T12:13:16.944Z,20.20
2019-03-03T12:16:40.990Z,23.77
2019-03-03T12:19:35.826Z,17.73
2019-03-03T12:22:43.115Z,16.67
2019-03-03T12:25:52.350Z,16.42
2019-03-03T12:29:06.703Z,16.12
2019-03-03T12:32:30.787Z,15.72
2019-03-03T12:35:39.718Z,20.57
2019-03-03T12:38:38.984Z,19.25
2019-03-03T12:41:56.652Z,17.45
2019-03-03T12:44:55.154Z,12.98
2019-03-03T12:48:15.369Z,10.82
2019-03-03T12:51:30.885Z,16.90
2019-03-03T12:54:42.149Z,13.93
2019-03-03T12:57:51.125Z,19.15
2019-03-03T13:01:11.831Z,20.85
2019-03-03T13:04:22.933Z,18.82
2019-03-03T13:07:34.667Z,15.93
2019-03-03T13:10:46.667Z,20.88
2019-03-03T13:14:12.020Z,19.92
2019-03-03T13:17:32.934Z,11.85
2019-03-03T13:20:39.979Z,19.20
2019-03-03T13:23:47.882Z,18.85
2019-03-03T13:26:50.798Z,10.68
2019-03-03T13:29:59.834Z,16.37
2019-03-03T13:33:11.834Z,15.18
2019-03-03T13:36:29.161Z,16.00
2019-03-03T13:39:38.574Z,26.95
2019-03-03T13:42:53.630Z,11.80
2019-03-03T13:45:43.266Z,15.10
2019-03-03T13:48:32.714Z,15.53
2019-03-03T13:51:22.849Z,17.80
2019-03-03T13:54:12.723Z,17.92
2019-03-03T13:57:02.333Z,9.93
2019-03-03T13:59:51.993Z,10.53
2019-03-03T14:02:41.923Z,12.07
2019-03-03T14:05:34.592Z,17.95
2019-03-03T14:08:24.633Z,20.50
2019-03-03T14:11:14.747Z,12.70
2019-03-03T14:14:04.775Z,15.20
2019-03-03T14:16:54.845Z,15.40
2019-03-03T14:19:44.610Z,14.28
2019-03-03T14:22:34.178Z,13.93
2019-03-03T14:25:24.041Z,15.78
2019-03-03T14:28:14.146Z,13.88
2019-03-03T14:31:03.925Z,13.13
2019-03-03T14:33:53.496Z,12.85
2019-03-03T14:36:42.919Z,10.15
2019-03-03T14:39:32.767Z,15.28
2019-03-03T14:42:22.177Z,18.73
2019-03-03T14:45:13.526Z,7.60
2019-03-03T14:48:04.031Z,16.45
2019-03-03T14:50:54.046Z,13.70
2019-03-03T14:53:43.704Z,15.18
2019-03-03T14:56:33.396Z,19.52
2019-03-03T14:59:22.881Z,13.78
2019-03-03T15:02:12.625Z,14.33
2019-03-03T15:05:02.312Z,16.77
2019-03-03T15:07:51.734Z,11.83
2019-03-03T15:10:41.164Z,10.68
2019-03-03T15:13:30.936Z,12.82
2019-03-03T15:16:22.622Z,12.13
2019-03-03T15:19:12.531Z,12.03
2019-03-03T15:22:02.301Z,12.95
2019-03-03T15:24:52.092Z,9.75
2019-03-03T15:27:42.081Z,9.43
2019-03-03T15:30:31.895Z,9.88
2019-03-03T15:33:21.238Z,9.08
2019-03-03T15:36:11.209Z,10.43
2019-03-03T15:39:01.402Z,9.65
2019-03-03T15:41:52.792Z,10.08
2019-03-03T15:44:42.824Z,13.95
2019-03-03T15:47:32.494Z,14.33
2019-03-03T15:50:22.973Z,9.90
2019-03-03T15:53:13.039Z,14.35
2019-03-03T15:56:02.852Z,15.50
2019-03-03T15:58:55.690Z,14.05
2019-03-03T16:01:43.709Z,12.30
2019-03-03T16:04:33.372Z,8.48
2019-03-03T16:07:23.035Z,9.20
2019-03-03T16:10:13.417Z,8.48
2019-03-03T16:13:03.969Z,9.40
2019-03-03T16:15:53.765Z,12.03
2019-03-03T16:18:43.337Z,9.40
2019-03-03T16:21:32.908Z,9.38
2019-03-03T16:24:22.914Z,11.05
2019-03-03T16:27:12.922Z,23.25
2019-03-03T16:30:02.995Z,11.53
2019-03-03T16:32:54.337Z,12.65
2019-03-03T16:35:44.056Z,7.35
2019-03-03T16:38:33.945Z,13.58
2019-03-03T16:41:23.634Z,12.28
2019-03-03T16:44:13.253Z,11.78
2019-03-03T16:47:02.781Z,13.98
2019-03-03T16:49:53.299Z,12.13
2019-03-03T16:52:43.037Z,9.60
2019-03-03T16:55:33.153Z,13.28
2019-03-03T16:58:23.015Z,13.13
2019-03-03T17:01:12.516Z,12.40
2019-03-03T17:04:02.056Z,12.15
2019-03-03T17:06:51.348Z,10.95
2019-03-03T17:09:40.962Z,10.80
2019-03-03T17:12:30.495Z,12.28
2019-03-03T17:15:21.404Z,12.28
2019-03-03T17:18:11.065Z,12.37
2019-03-03T17:21:02.576Z,35.35
2019-03-03T17:23:52.321Z,22.98
2019-03-03T17:26:42.605Z,22.17
2019-03-03T17:29:32.465Z,22.82
2019-03-03T17:32:22.348Z,26.12
2019-03-03T17:35:13.586Z,25.77
2019-03-03T17:38:03.236Z,30.45
2019-03-03T17:40:53.001Z,31.12
2019-03-03T17:43:42.806Z,18.52
2019-03-03T17:46:32.926Z,15.90
2019-03-03T17:49:23.052Z,16.20
2019-03-03T17:52:12.780Z,18.60
2019-03-03T17:55:02.459Z,18.52
2019-03-03T17:57:53.142Z,15.08
2019-03-03T18:00:44.109Z,14.60
2019-03-03T18:03:34.188Z,11.43
2019-03-03T18:06:23.963Z,26.65
2019-03-03T18:09:14.650Z,14.73
2019-03-03T18:12:04.168Z,12.98
2019-03-03T18:14:54.436Z,15.23
2019-03-03T18:17:44.200Z,13.20
2019-03-03T18:20:33.784Z,15.93
2019-03-03T18:23:23.551Z,18.12
2019-03-03T18:26:13.511Z,10.30
2019-03-03T18:29:03.783Z,13.68
2019-03-03T18:31:53.115Z,13.25
2019-03-03T18:34:42.818Z,10.95
2019-03-03T18:37:32.632Z,12.75
2019-03-03T18:40:22.542Z,9.63
2019-03-03T18:43:12.201Z,12.37
2019-03-03T18:46:01.622Z,12.07
2019-03-03T18:48:51.793Z,10.60
2019-03-03T18:51:41.773Z,13.15
2019-03-03T18:54:31.443Z,11.45
2019-03-03T18:57:21.289Z,12.20
2019-03-03T19:00:22.895Z,14.23
2019-03-03T19:03:12.991Z,17.90
2019-03-03T19:06:03.074Z,13.68
2019-03-03T19:08:53.024Z,15.95
2019-03-03T19:11:42.843Z,16.67
2019-03-03T19:14:35.986Z,17.05
2019-03-03T19:17:25.463Z,19.48
2019-03-03T19:20:16.291Z,16.52
2019-03-03T19:23:06.352Z,18.00
2019-03-03T19:25:56.014Z,16.10
2019-03-03T19:28:45.839Z,18.02
2019-03-03T19:31:35.672Z,23.67
2019-03-03T19:34:25.514Z,18.35
2019-03-03T19:37:15.254Z,16.30
2019-03-03T19:40:05.548Z,19.82
2019-03-03T19:42:55.391Z,21.48
2019-03-03T19:45:44.987Z,16.10
2019-03-03T19:48:35.964Z,20.62
2019-03-03T19:51:25.813Z,20.23
2019-03-03T19:57:16.655Z,14.87
2019-03-03T20:00:07.743Z,11.97
2019-03-03T20:02:57.715Z,14.78
2019-03-03T20:05:47.371Z,11.83
2019-03-03T20:08:37.075Z,11.78
2019-03-03T20:11:26.531Z,12.68
2019-03-03T20:14:16.732Z,12.47
2019-03-03T20:17:06.284Z,14.23
2019-03-03T20:19:56.274Z,13.62
2019-03-03T20:22:46.009Z,15.78
2019-03-03T20:25:36.226Z,11.22
2019-03-03T20:28:26.101Z,14.35
2019-03-03T20:31:15.835Z,10.53
2019-03-03T20:34:05.662Z,11.65
2019-03-03T20:36:56.704Z,11.63
2019-03-03T20:39:46.663Z,12.68
2019-03-03T20:42:37.710Z,12.07
2019-03-03T20:45:27.772Z,17.95
2019-03-03T20:48:17.466Z,11.18
2019-03-03T20:51:06.814Z,15.90
2019-03-03T20:53:56.838Z,11.30
2019-03-03T20:56:46.605Z,13.40
2019-03-03T20:59:36.358Z,10.88
2019-03-03T21:02:26.574Z,12.82
2019-03-03T21:05:16.758Z,11.97
2019-03-03T21:08:06.828Z,12.85
2019-03-03T21:10:56.636Z,15.60
2019-03-03T21:13:49.586Z,17.48
2019-03-03T21:16:39.454Z,15.40
2019-03-03T21:19:29.233Z,15.63
2019-03-03T21:22:19.152Z,15.08
2019-03-03T21:25:09.607Z,18.95
2019-03-03T21:27:59.205Z,16.82
2019-03-03T21:30:48.835Z,16.62
2019-03-03T21:33:38.451Z,22.27
2019-03-03T21:36:28.020Z,17.95
2019-03-03T21:39:17.777Z,20.88
2019-03-03T21:42:07.785Z,19.40
2019-03-03T21:44:57.697Z,19.32
2019-03-03T21:47:47.377Z,20.45
2019-03-03T21:50:37.132Z,21.15
2019-03-03T21:53:28.273Z,25.08
2019-03-03T21:56:18.110Z,29.37
2019-03-03T21:59:07.919Z,30.75
2019-03-03T22:01:58.744Z,26.02
2019-03-03T22:04:48.694Z,29.23
2019-03-03T22:07:38.455Z,32.78
2019-03-03T22:10:32.215Z,26.45
2019-03-03T22:13:22.426Z,25.37
2019-03-03T22:16:12.205Z,28.60
2019-03-03T22:19:01.881Z,33.35
2019-03-03T22:21:51.772Z,27.20
2019-03-03T22:24:41.305Z,26.40
2019-03-03T22:27:31.315Z,27.05
2019-03-03T22:30:21.194Z,25.75
2019-03-03T22:33:11.091Z,21.70
2019-03-03T22:36:00.861Z,27.77
2019-03-03T22:38:50.611Z,27.95
2019-03-03T22:41:40.585Z,22.50
2019-03-03T22:44:30.407Z,24.77
2019-03-03T22:47:20.214Z,31.93
2019-03-03T22:50:11.087Z,35.75
2019-03-03T22:53:00.804Z,26.82
2019-03-03T22:55:50.333Z,25.85
2019-03-03T22:58:40.075Z,27.87
2019-03-03T23:02:01.112Z,30.05
2019-03-03T23:05:14.991Z,30.30
2019-03-03T23:08:52.033Z,27.42
2019-03-03T23:12:23.829Z,32.35
2019-03-03T23:15:45.634Z,36.48
2019-03-03T23:19:01.745Z,31.05
2019-03-03T23:22:46.825Z,24.20
2019-03-03T23:25:55.724Z,32.50
2019-03-03T23:28:45.465Z,27.82
2019-03-03T23:31:35.557Z,29.72
2019-03-03T23:34:25.191Z,31.37
2019-03-03T23:37:15.071Z,28.23
2019-03-03T23:40:04.978Z,28.45
2019-03-03T23:42:55.041Z,31.07
2019-03-03T23:45:45.856Z,25.77
2019-03-03T23:48:35.943Z,34.23
2019-03-03T23:51:26.236Z,29.75
2019-03-03T23:54:16.443Z,29.57
2019-03-03T23:57:06.007Z,34.70
2019-03-03T23:59:55.774Z,27.22
